Time;durP1;ratioP1;P1;durP2;ratioP2;P2;SDS_P1;SDS_P2;PMS_P1;PMS_P2;Temp;Humidity;BMP_temperature;BMP_pressure;BME280_temperature;BME280_humidity;BME280_pressure;Samples;Min_cycle;Max_cycle;Signal;HPM_P1;HPM_P2
2021/12/22 00:00:27;;;;;;;11.13;3.63;;;25.40;99.90;;;;;;5063154;28;20201;-78
2021/12/22 00:02:58;;;;;;;9.45;3.50;;;25.20;99.90;;;;;;5063799;28;20222;-76
2021/12/22 00:05:31;;;;;;;11.63;3.80;;;25.10;99.90;;;;;;5054308;28;20190;-76
2021/12/22 00:08:01;;;;;;;10.32;3.70;;;24.90;99.90;;;;;;5070405;28;20624;-76
2021/12/22 00:10:32;;;;;;;9.80;3.78;;;25.00;99.90;;;;;;5054633;28;20233;-75
2021/12/22 00:13:03;;;;;;;7.75;3.22;;;24.90;99.90;;;;;;5054754;28;20216;-76
2021/12/22 00:15:35;;;;;;;8.65;3.70;;;24.90;99.90;;;;;;5055085;28;20194;-75
2021/12/22 00:18:06;;;;;;;10.60;4.18;;;25.00;99.90;;;;;;5061407;28;20229;-75
2021/12/22 00:20:37;;;;;;;9.98;4.00;;;25.10;99.90;;;;;;5055460;28;20186;-75
2021/12/22 00:23:08;;;;;;;9.48;3.97;;;25.20;99.90;;;;;;5056318;28;20251;-75
2021/12/22 00:25:38;;;;;;;11.52;3.85;;;25.30;99.90;;;;;;5054737;28;20200;-75
2021/12/22 00:28:12;;;;;;;10.50;3.80;;;25.30;99.90;;;;;;5054536;28;20267;-75
2021/12/22 00:30:45;;;;;;;10.95;3.75;;;25.20;99.90;;;;;;5054951;28;20251;-76
2021/12/22 00:33:16;;;;;;;12.50;3.90;;;25.10;99.90;;;;;;5062422;28;20571;-75
2021/12/22 00:35:47;;;;;;;11.00;4.13;;;25.10;99.90;;;;;;5052796;28;20198;-76
2021/12/22 00:38:20;;;;;;;10.68;4.38;;;25.10;99.90;;;;;;5052055;28;20208;-77
2021/12/22 00:40:51;;;;;;;9.57;3.90;;;25.10;99.90;;;;;;5053806;28;20206;-76
2021/12/22 00:43:22;;;;;;;9.98;4.22;;;25.20;99.90;;;;;;5047511;28;20194;-75
2021/12/22 00:45:56;;;;;;;10.63;3.92;;;25.40;99.90;;;;;;5054372;28;20185;-77
2021/12/22 00:48:27;;;;;;;8.07;3.90;;;25.60;99.90;;;;;;5054052;28;20186;-76
2021/12/22 00:50:59;;;;;;;14.23;4.47;;;25.80;99.90;;;;;;5053412;28;20194;-78
2021/12/22 00:53:29;;;;;;;10.15;4.25;;;25.90;99.90;;;;;;5054440;28;20198;-77
2021/12/22 00:56:00;;;;;;;10.63;4.40;;;25.90;99.90;;;;;;5051994;28;20228;-77
2021/12/22 00:58:31;;;;;;;7.88;3.92;;;25.90;99.90;;;;;;5054456;28;20194;-76
2021/12/22 01:01:04;;;;;;;8.57;4.05;;;25.90;99.90;;;;;;5054584;28;20185;-76
2021/12/22 01:03:35;;;;;;;10.77;5.15;;;25.90;99.90;;;;;;5054886;28;20186;-75
2021/12/22 01:06:06;;;;;;;14.48;4.75;;;26.10;99.90;;;;;;5053602;28;20273;-76
2021/12/22 01:08:37;;;;;;;7.40;4.28;;;26.30;99.90;;;;;;5056081;28;20201;-76
2021/12/22 01:11:08;;;;;;;10.48;4.70;;;26.40;99.90;;;;;;5052815;28;20225;-75
2021/12/22 01:13:38;;;;;;;10.32;4.55;;;26.60;99.90;;;;;;5054746;28;20611;-76
2021/12/22 01:16:11;;;;;;;8.63;4.43;;;26.60;99.90;;;;;;5053341;28;20197;-76
2021/12/22 01:18:42;;;;;;;11.50;4.25;;;26.70;99.90;;;;;;5051035;28;20186;-76
2021/12/22 01:21:19;;;;;;;12.75;4.97;;;26.90;99.90;;;;;;5051750;28;20563;-76
2021/12/22 01:24:00;;;;;;;10.00;4.85;;;26.70;99.90;;;;;;5053752;28;20623;-76
2021/12/22 01:26:33;;;;;;;12.52;5.03;;;26.70;99.90;;;;;;5054111;28;20185;-78
2021/12/22 01:29:04;;;;;;;9.20;4.47;;;26.70;99.90;;;;;;5052399;28;20193;-76
2021/12/22 01:31:38;;;;;;;9.50;4.72;;;26.80;99.90;;;;;;5058964;28;20255;-76
2021/12/22 01:34:09;;;;;;;7.90;4.55;;;26.90;99.90;;;;;;5056764;28;20204;-77
2021/12/22 01:36:41;;;;;;;10.63;4.70;;;26.80;99.90;;;;;;5052096;28;20211;-76
2021/12/22 01:39:12;;;;;;;9.32;4.30;;;26.80;99.90;;;;;;5052163;28;20669;-76
2021/12/22 01:41:43;;;;;;;7.70;4.20;;;26.70;99.90;;;;;;5048737;28;20594;-76
2021/12/22 01:44:25;;;;;;;8.85;4.53;;;26.60;99.90;;;;;;5055979;28;20209;-76
2021/12/22 01:49:50;;;;;;;13.13;4.55;;;26.70;99.90;;;;;;5048060;28;20219;-76
2021/12/22 01:52:22;;;;;;;9.35;4.43;;;26.70;99.90;;;;;;5051270;28;20188;-76
2021/12/22 01:55:07;;;;;;;8.25;4.53;;;26.70;99.90;;;;;;5056332;28;20247;-76
2021/12/22 01:57:46;;;;;;;9.27;4.63;;;26.50;99.90;;;;;;5061995;28;20216;-77
2021/12/22 02:00:20;;;;;;;7.68;4.47;;;26.50;99.90;;;;;;5067501;28;20206;-76
2021/12/22 02:02:53;;;;;;;10.25;4.38;;;26.40;99.90;;;;;;5065682;28;20197;-77
2021/12/22 02:05:24;;;;;;;9.45;4.85;;;26.50;99.90;;;;;;5060198;28;20254;-76
2021/12/22 02:08:00;;;;;;;11.15;4.65;;;26.60;99.90;;;;;;5053118;28;20205;-77
2021/12/22 02:10:39;;;;;;;8.98;4.40;;;26.60;99.90;;;;;;5062495;28;20228;-77
2021/12/22 02:13:15;;;;;;;9.10;4.00;;;26.40;99.90;;;;;;5058067;28;20564;-77
2021/12/22 02:15:46;;;;;;;8.40;4.63;;;26.40;99.90;;;;;;5057275;28;20726;-76
2021/12/22 02:18:21;;;;;;;10.88;4.28;;;26.40;99.90;;;;;;5061239;28;20209;-77
2021/12/22 02:20:54;;;;;;;10.13;4.68;;;26.50;99.90;;;;;;5060088;28;20560;-76
2021/12/22 02:23:25;;;;;;;9.52;4.47;;;26.50;99.90;;;;;;5063078;28;20680;-77
2021/12/22 02:26:00;;;;;;;10.88;4.20;;;26.50;99.90;;;;;;5056798;28;20194;-78
2021/12/22 02:28:34;;;;;;;9.07;3.92;;;26.30;99.90;;;;;;5049336;28;20202;-78
2021/12/22 02:31:05;;;;;;;7.78;3.95;;;26.30;99.90;;;;;;5056305;28;20231;-77
2021/12/22 02:33:37;;;;;;;8.52;4.38;;;26.20;99.90;;;;;;5067353;28;20194;-78
2021/12/22 02:36:21;;;;;;;9.65;3.83;;;26.40;99.90;;;;;;5052302;28;20674;-76
2021/12/22 02:38:55;;;;;;;7.13;3.60;;;26.50;99.90;;;;;;5062181;28;20251;-77
2021/12/22 02:41:28;;;;;;;8.18;4.10;;;26.50;99.90;;;;;;5064481;28;20205;-78
2021/12/22 02:44:00;;;;;;;9.27;4.20;;;26.50;99.90;;;;;;5065058;28;20285;-79
2021/12/22 02:46:34;;;;;;;6.97;4.13;;;26.40;99.90;;;;;;5062156;28;20189;-75
2021/12/22 02:49:06;;;;;;;9.57;3.97;;;26.30;99.90;;;;;;5068405;28;20669;-75
2021/12/22 02:51:40;;;;;;;10.65;4.03;;;26.30;99.90;;;;;;5059693;28;20193;-75
2021/12/22 02:54:16;;;;;;;9.80;4.20;;;26.30;99.90;;;;;;5056421;28;20232;-75
2021/12/22 02:57:07;;;;;;;8.23;3.85;;;26.30;99.90;;;;;;5059244;28;20227;-75
2021/12/22 02:59:50;;;;;;;7.07;3.80;;;26.20;99.90;;;;;;5058144;28;20197;-76
2021/12/22 03:02:31;;;;;;;8.65;4.20;;;26.30;99.90;;;;;;5048230;28;20200;-78
2021/12/22 03:05:03;;;;;;;8.43;4.25;;;26.20;99.90;;;;;;5054790;28;20208;-76
2021/12/22 03:07:37;;;;;;;10.07;4.60;;;26.30;99.90;;;;;;5054381;28;20565;-78
2021/12/22 03:10:12;;;;;;;7.90;4.28;;;26.30;99.90;;;;;;5066427;28;20278;-76
2021/12/22 03:12:42;;;;;;;10.90;4.32;;;26.20;99.90;;;;;;5058720;28;21862;-75
2021/12/22 03:15:14;;;;;;;11.68;4.93;;;26.10;99.90;;;;;;5066423;28;20201;-76
2021/12/22 03:17:45;;;;;;;9.80;4.82;;;26.10;99.90;;;;;;5055889;28;20266;-74
2021/12/22 03:20:16;;;;;;;12.07;5.15;;;26.10;99.90;;;;;;5064177;28;20217;-74
2021/12/22 03:22:49;;;;;;;9.15;4.57;;;26.00;99.90;;;;;;5057855;28;20201;-74
2021/12/22 03:25:25;;;;;;;8.65;4.80;;;25.90;99.90;;;;;;5055062;28;20205;-74
2021/12/22 03:28:02;;;;;;;9.30;4.88;;;26.00;99.90;;;;;;5054408;28;20604;-76
2021/12/22 03:30:33;;;;;;;11.98;5.20;;;26.10;99.90;;;;;;5058605;28;20212;-77
2021/12/22 03:33:04;;;;;;;12.57;4.80;;;26.10;99.90;;;;;;5051396;28;20649;-74
2021/12/22 03:35:35;;;;;;;7.80;4.43;;;26.20;99.90;;;;;;5059866;28;20564;-76
2021/12/22 03:38:08;;;;;;;13.95;5.00;;;26.30;99.90;;;;;;5067049;28;20700;-75
2021/12/22 03:40:39;;;;;;;16.88;4.28;;;26.30;99.90;;;;;;5066346;28;20197;-77
2021/12/22 03:43:10;;;;;;;9.07;4.00;;;26.50;99.90;;;;;;5062635;28;20205;-78
2021/12/22 03:45:40;;;;;;;10.50;3.97;;;26.50;99.90;;;;;;5061029;28;20189;-76
2021/12/22 03:48:11;;;;;;;9.25;3.92;;;26.50;99.90;;;;;;5057769;28;20194;-77
2021/12/22 03:50:42;;;;;;;10.57;3.88;;;26.50;99.90;;;;;;5055007;28;20244;-75
2021/12/22 03:53:16;;;;;;;13.07;3.97;;;26.50;99.90;;;;;;5063943;28;20197;-75
2021/12/22 03:55:47;;;;;;;9.63;3.72;;;26.50;99.90;;;;;;5062964;28;20224;-75
2021/12/22 03:58:17;;;;;;;10.70;3.80;;;26.60;99.90;;;;;;5059950;28;20246;-76
2021/12/22 04:00:50;;;;;;;10.38;3.97;;;26.50;99.90;;;;;;5060831;28;20193;-75
2021/12/22 04:03:23;;;;;;;12.20;4.25;;;26.30;99.90;;;;;;5069070;28;20193;-75
2021/12/22 04:05:54;;;;;;;14.15;4.20;;;26.30;99.90;;;;;;5073014;28;20228;-76
2021/12/22 04:08:26;;;;;;;16.02;4.38;;;26.30;99.90;;;;;;5064098;28;20303;-75
2021/12/22 04:10:57;;;;;;;12.05;4.50;;;26.20;99.90;;;;;;5063454;28;20597;-76
2021/12/22 04:13:28;;;;;;;11.82;4.35;;;26.20;99.90;;;;;;5059785;28;20193;-78
2021/12/22 04:15:59;;;;;;;13.25;4.57;;;26.20;99.90;;;;;;5059464;28;20200;-77
2021/12/22 04:18:30;;;;;;;14.70;4.65;;;26.30;99.90;;;;;;5063885;28;20220;-78
2021/12/22 04:21:00;;;;;;;15.90;5.25;;;26.20;99.90;;;;;;5056663;28;20275;-77
2021/12/22 04:23:33;;;;;;;13.20;4.20;;;26.20;99.90;;;;;;5057995;28;20726;-76
2021/12/22 04:26:04;;;;;;;13.52;4.70;;;26.20;99.90;;;;;;5057533;28;20198;-74
2021/12/22 04:28:34;;;;;;;12.43;4.22;;;26.10;99.90;;;;;;5054246;28;20201;-76
2021/12/22 04:31:05;;;;;;;15.27;4.88;;;26.20;99.90;;;;;;5052139;28;20661;-79
2021/12/22 04:33:36;;;;;;;14.85;4.43;;;26.10;99.90;;;;;;5054239;28;20207;-79
2021/12/22 04:36:07;;;;;;;15.57;4.43;;;26.10;99.90;;;;;;5051753;28;20217;-78
2021/12/22 04:38:40;;;;;;;19.48;5.00;;;26.00;99.90;;;;;;5057231;28;20221;-76
2021/12/22 04:41:10;;;;;;;12.80;4.90;;;25.90;99.90;;;;;;5055658;28;20193;-77
2021/12/22 04:43:41;;;;;;;11.40;4.20;;;25.90;99.90;;;;;;5063870;28;20207;-76
2021/12/22 04:46:12;;;;;;;14.60;4.55;;;26.00;99.90;;;;;;5064554;28;20211;-77
2021/12/22 04:48:42;;;;;;;18.00;5.25;;;26.00;99.90;;;;;;5062098;28;20204;-77
2021/12/22 04:51:22;;;;;;;13.75;4.35;;;26.00;99.90;;;;;;5060140;28;20197;-76
2021/12/22 04:54:02;;;;;;;10.13;4.55;;;25.90;99.90;;;;;;5058660;28;20200;-75
2021/12/22 04:56:33;;;;;;;14.70;4.60;;;25.80;99.90;;;;;;5057332;28;20197;-75
2021/12/22 04:59:04;;;;;;;13.25;5.30;;;25.60;99.90;;;;;;5055515;28;20571;-76
2021/12/22 05:01:35;;;;;;;11.63;4.72;;;25.40;99.90;;;;;;5060525;28;20197;-77
2021/12/22 05:04:05;;;;;;;14.13;5.22;;;25.40;99.90;;;;;;5058110;28;20205;-77
2021/12/22 05:06:36;;;;;;;15.10;5.30;;;25.40;99.90;;;;;;5064778;28;20197;-77
2021/12/22 05:09:10;;;;;;;17.50;4.93;;;25.40;99.90;;;;;;5062854;28;20200;-77
2021/12/22 05:11:41;;;;;;;11.20;5.13;;;25.40;99.90;;;;;;5063009;28;20563;-77
2021/12/22 05:14:12;;;;;;;13.40;5.32;;;25.30;99.90;;;;;;5058035;28;20569;-76
2021/12/22 05:16:48;;;;;;;14.73;4.88;;;25.20;99.90;;;;;;5058279;28;20214;-77
2021/12/22 05:19:18;;;;;;;15.40;5.15;;;25.10;99.90;;;;;;5057295;28;20719;-77
2021/12/22 05:21:49;;;;;;;17.10;5.30;;;25.00;99.90;;;;;;5058534;28;20566;-77
2021/12/22 05:24:22;;;;;;;15.45;5.40;;;24.90;99.90;;;;;;5054859;28;20259;-76
2021/12/22 05:26:53;;;;;;;14.95;5.53;;;24.80;99.90;;;;;;5056665;28;20201;-76
2021/12/22 05:29:23;;;;;;;14.07;5.07;;;24.80;99.90;;;;;;5058810;28;21812;-76
2021/12/22 05:31:55;;;;;;;15.10;5.75;;;24.80;99.90;;;;;;5057386;28;20197;-77
2021/12/22 05:34:26;;;;;;;15.50;5.45;;;24.80;99.90;;;;;;5053113;28;20190;-78
2021/12/22 05:37:00;;;;;;;15.20;6.30;;;24.80;99.90;;;;;;5054190;28;20251;-77
2021/12/22 05:39:33;;;;;;;15.60;6.05;;;24.60;99.90;;;;;;5048111;28;20664;-77
2021/12/22 05:42:04;;;;;;;14.68;6.05;;;24.60;99.90;;;;;;5056974;28;20197;-78
2021/12/22 05:44:35;;;;;;;13.63;6.18;;;24.60;99.90;;;;;;5064422;28;20212;-77
2021/12/22 05:47:06;;;;;;;14.40;5.93;;;24.50;99.90;;;;;;5054988;28;20220;-77
2021/12/22 05:49:36;;;;;;;16.35;6.03;;;24.50;99.90;;;;;;5057014;28;20676;-78
2021/12/22 05:52:07;;;;;;;14.90;5.97;;;24.50;99.90;;;;;;5058934;28;20299;-78
2021/12/22 05:54:40;;;;;;;13.93;5.65;;;24.50;99.90;;;;;;5056042;28;20225;-78
2021/12/22 05:57:11;;;;;;;14.57;5.57;;;24.40;99.90;;;;;;5056145;28;20204;-77
2021/12/22 05:59:42;;;;;;;14.00;5.95;;;24.40;99.90;;;;;;5058764;28;20217;-77
2021/12/22 06:02:12;;;;;;;14.25;5.65;;;24.40;99.90;;;;;;5054026;28;20204;-77
2021/12/22 06:04:43;;;;;;;14.27;5.72;;;24.50;99.90;;;;;;5049861;28;20212;-77
2021/12/22 06:07:14;;;;;;;16.27;5.72;;;24.40;99.90;;;;;;5057893;28;20208;-77
2021/12/22 06:09:47;;;;;;;17.75;5.07;;;24.40;99.90;;;;;;5056648;28;20236;-77
2021/12/22 06:12:18;;;;;;;13.90;4.85;;;24.40;99.90;;;;;;5054902;28;20304;-77
2021/12/22 06:14:49;;;;;;;14.57;5.30;;;24.40;99.90;;;;;;5060780;28;20189;-77
2021/12/22 06:17:19;;;;;;;16.75;5.45;;;24.30;99.90;;;;;;5065263;28;20201;-77
2021/12/22 06:19:50;;;;;;;17.20;5.45;;;24.30;99.90;;;;;;5056992;28;20221;-77
2021/12/22 06:22:21;;;;;;;10.02;4.50;;;24.30;99.90;;;;;;5067053;28;20212;-77
2021/12/22 06:24:54;;;;;;;14.18;4.25;;;24.30;99.90;;;;;;5061069;28;20200;-77
2021/12/22 06:27:24;;;;;;;8.52;3.90;;;24.30;99.90;;;;;;5053247;28;20239;-77
2021/12/22 06:29:55;;;;;;;14.43;4.28;;;24.30;99.90;;;;;;5063897;28;20197;-76
2021/12/22 06:32:26;;;;;;;9.68;3.90;;;24.30;99.90;;;;;;5069849;28;20937;-77
2021/12/22 06:34:59;;;;;;;14.43;4.05;;;24.20;99.90;;;;;;5062080;28;20572;-76
2021/12/22 06:37:30;;;;;;;11.00;3.50;;;24.30;99.90;;;;;;5066190;28;20213;-76
2021/12/22 06:40:03;;;;;;;10.70;3.20;;;24.30;99.90;;;;;;5061350;28;20232;-77
2021/12/22 06:42:34;;;;;;;11.80;3.47;;;24.30;99.90;;;;;;5050194;28;20307;-77
2021/12/22 06:45:05;;;;;;;12.25;3.70;;;24.20;99.90;;;;;;5058105;28;20212;-77
2021/12/22 06:47:36;;;;;;;10.00;3.60;;;24.20;99.90;;;;;;5071323;28;20201;-77
2021/12/22 06:50:08;;;;;;;9.88;3.60;;;24.20;99.90;;;;;;5060692;28;20263;-76
2021/12/22 06:52:39;;;;;;;10.88;3.55;;;24.20;99.90;;;;;;5071594;28;20600;-77
2021/12/22 06:55:12;;;;;;;11.48;3.20;;;24.20;99.90;;;;;;5064703;28;20221;-78
2021/12/22 06:57:43;;;;;;;14.13;3.90;;;24.20;99.90;;;;;;5057364;28;20193;-77
2021/12/22 07:00:15;;;;;;;11.63;3.15;;;24.30;99.90;;;;;;5063944;28;20676;-77
2021/12/22 07:02:46;;;;;;;11.38;3.40;;;24.20;99.90;;;;;;5057783;28;20209;-77
2021/12/22 07:05:17;;;;;;;11.48;3.75;;;24.20;99.90;;;;;;5054396;28;20216;-77
2021/12/22 07:07:50;;;;;;;10.98;3.10;;;24.20;99.90;;;;;;5054525;28;20221;-77
2021/12/22 07:10:23;;;;;;;10.43;3.42;;;24.30;99.90;;;;;;5064493;28;20229;-78
2021/12/22 07:12:54;;;;;;;8.98;3.38;;;24.30;99.90;;;;;;5061236;28;20204;-77
2021/12/22 07:15:25;;;;;;;10.85;3.25;;;24.40;99.90;;;;;;5060317;28;20562;-76
2021/12/22 07:17:56;;;;;;;14.65;3.63;;;24.40;99.90;;;;;;5049485;28;20202;-76
2021/12/22 07:20:27;;;;;;;9.25;3.13;;;24.50;99.90;;;;;;5067408;28;20193;-74
2021/12/22 07:22:58;;;;;;;16.15;3.75;;;24.50;99.90;;;;;;5070873;28;20189;-74
2021/12/22 07:25:30;;;;;;;10.18;3.40;;;24.50;99.90;;;;;;5054789;28;20193;-74
2021/12/22 07:28:01;;;;;;;12.48;3.45;;;24.50;99.90;;;;;;5061982;28;20238;-74
2021/12/22 07:30:32;;;;;;;10.93;3.33;;;24.40;99.90;;;;;;5065157;28;20197;-74
2021/12/22 07:33:03;;;;;;;15.02;3.92;;;24.40;99.90;;;;;;5046461;28;20614;-73
2021/12/22 07:35:44;;;;;;;9.90;3.15;;;24.30;99.90;;;;;;5051455;28;20232;-73
2021/12/22 07:38:29;;;;;;;10.00;3.13;;;24.30;99.90;;;;;;5050794;28;20194;-74
2021/12/22 07:41:03;;;;;;;9.00;3.22;;;24.20;99.90;;;;;;5063194;28;20197;-74
2021/12/22 07:43:34;;;;;;;9.52;3.28;;;24.20;99.90;;;;;;5057503;28;20213;-76
2021/12/22 07:46:08;;;;;;;10.27;2.95;;;24.20;99.90;;;;;;5051039;28;20206;-76
2021/12/22 07:48:39;;;;;;;8.70;2.97;;;24.10;99.90;;;;;;5052900;28;20236;-75
2021/12/22 07:51:09;;;;;;;10.40;3.08;;;24.10;99.90;;;;;;5066246;28;20204;-74
2021/12/22 07:53:40;;;;;;;8.23;3.20;;;24.10;99.90;;;;;;5058512;28;20229;-73
2021/12/22 07:56:15;;;;;;;13.60;3.13;;;24.10;99.90;;;;;;5065291;28;20684;-75
2021/12/22 07:58:45;;;;;;;8.38;3.03;;;24.10;99.90;;;;;;5052217;28;20588;-75
2021/12/22 08:01:16;;;;;;;12.00;3.13;;;24.10;99.90;;;;;;5053083;28;20208;-75
2021/12/22 08:03:50;;;;;;;12.32;3.00;;;24.00;99.90;;;;;;5054647;28;20197;-75
2021/12/22 08:06:20;;;;;;;9.65;2.72;;;24.00;99.90;;;;;;5052882;28;20208;-74
2021/12/22 08:08:51;;;;;;;9.48;3.15;;;24.00;99.90;;;;;;5070349;28;20219;-74
2021/12/22 08:11:24;;;;;;;10.60;3.10;;;24.00;99.90;;;;;;5063565;28;20225;-75
2021/12/22 08:13:55;;;;;;;9.00;2.72;;;24.00;99.90;;;;;;5055274;28;20204;-74
2021/12/22 08:16:26;;;;;;;11.18;3.25;;;24.00;99.90;;;;;;5058021;28;20201;-75
2021/12/22 08:18:56;;;;;;;9.23;2.63;;;24.00;99.90;;;;;;5069959;28;20217;-74
2021/12/22 08:21:27;;;;;;;10.50;3.30;;;24.00;99.90;;;;;;5057935;28;20193;-75
2021/12/22 08:23:58;;;;;;;9.45;3.30;;;24.10;99.90;;;;;;5073527;28;20189;-75
2021/12/22 08:26:30;;;;;;;12.20;2.80;;;24.00;99.90;;;;;;5055273;28;20202;-75
2021/12/22 08:29:01;;;;;;;13.43;3.20;;;24.00;99.90;;;;;;5053855;28;20198;-75
2021/12/22 08:31:32;;;;;;;13.73;3.63;;;23.90;99.90;;;;;;5055241;28;20288;-75
2021/12/22 08:34:04;;;;;;;16.30;3.63;;;23.90;99.90;;;;;;5071399;28;20197;-75
2021/12/22 08:39:22;;;;;;;14.52;3.00;;;23.90;99.90;;;;;;5055807;28;20220;-74
2021/12/22 08:41:56;;;;;;;11.65;3.15;;;23.90;99.90;;;;;;5062026;28;20569;-75
2021/12/22 08:44:26;;;;;;;16.38;3.13;;;23.80;99.90;;;;;;5059436;28;20213;-75
2021/12/22 08:46:57;;;;;;;12.32;3.42;;;23.80;99.90;;;;;;5058165;28;20200;-75
2021/12/22 08:49:28;;;;;;;19.27;9.90;;;23.70;99.90;;;;;;5055330;28;20201;-75
2021/12/22 08:51:59;;;;;;;15.77;7.70;;;23.70;99.90;;;;;;5060988;28;20572;-75
2021/12/22 08:54:30;;;;;;;16.38;4.70;;;23.60;99.90;;;;;;5053794;28;20217;-74
2021/12/22 08:57:02;;;;;;;13.95;5.75;;;23.60;99.90;;;;;;5058649;28;20202;-74
2021/12/22 08:59:33;;;;;;;12.00;4.05;;;23.60;99.90;;;;;;5068524;28;20212;-74
2021/12/22 09:02:05;;;;;;;12.50;4.60;;;23.60;99.90;;;;;;5062882;28;20197;-75
2021/12/22 09:04:36;;;;;;;19.58;5.68;;;23.60;99.90;;;;;;5058843;28;20209;-74
2021/12/22 09:07:07;;;;;;;10.05;4.00;;;23.60;99.90;;;;;;5066528;28;20208;-75
2021/12/22 09:09:38;;;;;;;9.50;3.33;;;23.60;99.90;;;;;;5058111;28;20244;-75
2021/12/22 09:12:11;;;;;;;9.82;2.88;;;23.60;99.90;;;;;;5051069;28;20205;-75
2021/12/22 09:14:42;;;;;;;13.13;3.33;;;23.60;99.90;;;;;;5060141;28;20208;-75
2021/12/22 09:17:13;;;;;;;12.00;3.22;;;23.60;99.90;;;;;;5055583;28;20330;-75
2021/12/22 09:19:43;;;;;;;11.88;2.95;;;23.60;99.90;;;;;;5072377;28;20706;-75
2021/12/22 09:22:14;;;;;;;17.00;3.22;;;23.60;99.90;;;;;;5062912;28;20192;-75
2021/12/22 09:24:44;;;;;;;9.98;2.90;;;23.50;99.90;;;;;;5056978;28;20197;-75
2021/12/22 09:27:17;;;;;;;12.40;3.33;;;23.50;99.90;;;;;;5056401;28;20193;-75
2021/12/22 09:29:48;;;;;;;11.55;2.97;;;23.50;99.90;;;;;;5045321;28;20208;-75
2021/12/22 09:32:21;;;;;;;10.10;2.67;;;23.50;99.90;;;;;;5052421;28;20246;-75
2021/12/22 09:34:52;;;;;;;11.38;2.70;;;23.50;99.90;;;;;;5053296;28;20221;-74
2021/12/22 09:37:23;;;;;;;9.90;2.70;;;23.50;99.90;;;;;;5054547;28;20194;-75
2021/12/22 09:39:54;;;;;;;13.02;2.60;;;23.50;99.90;;;;;;5065518;28;20217;-75
2021/12/22 09:42:31;;;;;;;11.05;2.90;;;23.50;99.90;;;;;;5060566;28;20590;-75
2021/12/22 09:45:02;;;;;;;12.13;3.08;;;23.50;99.90;;;;;;5069937;28;20197;-75
2021/12/22 09:47:48;;;;;;;9.82;2.70;;;23.50;99.90;;;;;;5072295;28;20201;-75
2021/12/22 09:50:35;;;;;;;9.82;2.83;;;23.50;99.90;;;;;;5060020;28;20196;-75
2021/12/22 09:53:06;;;;;;;15.38;3.22;;;23.50;99.90;;;;;;5055046;28;20189;-75
2021/12/22 09:55:37;;;;;;;9.40;2.80;;;23.50;99.90;;;;;;5052155;28;20976;-74
2021/12/22 09:58:10;;;;;;;12.60;3.13;;;23.50;99.90;;;;;;5063661;28;20209;-75
2021/12/22 10:00:42;;;;;;;10.85;2.75;;;23.40;99.90;;;;;;5059603;28;20271;-75
2021/12/22 10:03:13;;;;;;;10.15;3.22;;;23.40;99.90;;;;;;5065570;28;20200;-74
2021/12/22 10:05:48;;;;;;;6.13;2.50;;;23.40;99.90;;;;;;5048775;28;20565;-75
2021/12/22 10:08:22;;;;;;;11.05;2.72;;;23.40;99.90;;;;;;5058136;28;20287;-75
2021/12/22 10:11:06;;;;;;;11.25;3.42;;;23.40;99.90;;;;;;5062223;28;20239;-74
2021/12/22 10:13:39;;;;;;;9.88;2.97;;;23.50;99.90;;;;;;5048301;28;20950;-74
2021/12/22 10:16:15;;;;;;;12.25;2.85;;;23.40;99.90;;;;;;5048645;28;20235;-75
2021/12/22 10:19:04;;;;;;;12.90;2.95;;;23.50;99.90;;;;;;5046422;28;20698;-74
2021/12/22 10:21:38;;;;;;;13.82;2.80;;;23.40;99.90;;;;;;5048743;28;20691;-75
2021/12/22 10:24:10;;;;;;;9.80;2.60;;;23.40;99.90;;;;;;5053858;28;20206;-74
2021/12/22 10:26:41;;;;;;;10.70;2.80;;;23.40;99.90;;;;;;5052137;28;20206;-75
2021/12/22 10:29:14;;;;;;;13.48;2.97;;;23.40;99.90;;;;;;5039891;28;20193;-75
2021/12/22 10:31:46;;;;;;;9.82;2.50;;;23.30;99.90;;;;;;5048582;28;20217;-75
2021/12/22 10:34:19;;;;;;;14.55;3.03;;;23.30;99.90;;;;;;5050837;28;20220;-75
2021/12/22 10:36:51;;;;;;;11.40;2.85;;;23.30;99.90;;;;;;5037299;28;20864;-75
2021/12/22 10:39:28;;;;;;;11.30;2.67;;;23.30;99.90;;;;;;5031605;28;20682;-75
2021/12/22 10:42:08;;;;;;;10.48;2.80;;;23.30;99.90;;;;;;5051450;28;20211;-75
2021/12/22 10:44:44;;;;;;;13.93;3.22;;;23.30;99.90;;;;;;5049621;28;20205;-75
2021/12/22 10:47:22;;;;;;;9.63;2.85;;;23.20;99.90;;;;;;5050044;28;20225;-75
2021/12/22 10:50:04;;;;;;;11.65;3.45;;;23.20;99.90;;;;;;5048766;28;20723;-75
2021/12/22 10:52:36;;;;;;;11.75;2.80;;;23.20;99.90;;;;;;5051463;28;20201;-75
2021/12/22 10:55:13;;;;;;;13.52;3.30;;;23.20;99.90;;;;;;5057010;28;20538;-75
2021/12/22 10:57:46;;;;;;;10.95;3.17;;;23.20;99.90;;;;;;5057431;28;20198;-75
2021/12/22 11:00:24;;;;;;;11.23;2.90;;;23.20;99.90;;;;;;5054872;28;20213;-75
2021/12/22 11:03:06;;;;;;;8.25;2.88;;;23.20;99.90;;;;;;5061719;28;20200;-75
2021/12/22 11:05:46;;;;;;;10.40;3.00;;;23.10;99.90;;;;;;5051294;28;20209;-75
2021/12/22 11:08:23;;;;;;;10.60;3.10;;;23.20;99.90;;;;;;5057003;28;20200;-75
2021/12/22 11:10:54;;;;;;;10.18;2.95;;;23.20;99.90;;;;;;5057503;28;20232;-75
2021/12/22 11:13:26;;;;;;;9.85;2.63;;;23.20;99.90;;;;;;5050707;28;20266;-75
2021/12/22 11:15:59;;;;;;;11.00;2.80;;;23.20;99.90;;;;;;5056477;28;20202;-75
2021/12/22 11:18:31;;;;;;;11.77;3.10;;;23.20;99.90;;;;;;5049611;28;20197;-75
2021/12/22 11:21:15;;;;;;;10.27;3.03;;;23.20;99.90;;;;;;5056042;28;20577;-75
2021/12/22 11:23:46;;;;;;;9.85;2.88;;;23.20;99.90;;;;;;5057819;28;20198;-75
2021/12/22 11:26:17;;;;;;;11.05;3.08;;;23.20;99.90;;;;;;5054071;28;20197;-75
2021/12/22 11:28:48;;;;;;;12.40;3.20;;;23.20;99.90;;;;;;5057154;28;20201;-75
2021/12/22 11:31:20;;;;;;;11.55;3.25;;;23.20;99.90;;;;;;5059505;28;20289;-75
2021/12/22 11:33:52;;;;;;;18.75;3.70;;;23.20;99.90;;;;;;5055518;28;20201;-75
2021/12/22 11:36:23;;;;;;;12.55;3.40;;;23.20;99.90;;;;;;5059166;28;20200;-75
2021/12/22 11:38:54;;;;;;;15.55;3.58;;;23.30;99.90;;;;;;5059299;28;20283;-75
2021/12/22 11:41:25;;;;;;;16.65;3.58;;;23.30;99.90;;;;;;5051389;28;20213;-75
2021/12/22 11:43:58;;;;;;;13.00;3.53;;;23.30;99.90;;;;;;5049592;28;20186;-76
2021/12/22 11:46:34;;;;;;;14.55;3.33;;;23.30;99.90;;;;;;5051704;28;20247;-76
2021/12/22 11:49:05;;;;;;;17.10;3.42;;;23.20;99.90;;;;;;5050737;28;20217;-76
2021/12/22 11:51:36;;;;;;;10.32;3.38;;;23.20;99.90;;;;;;5048535;28;20251;-77
2021/12/22 11:54:11;;;;;;;13.00;3.33;;;23.20;99.90;;;;;;5053500;28;20335;-74
2021/12/22 11:56:45;;;;;;;13.57;3.33;;;23.20;99.90;;;;;;5055450;28;20200;-75
2021/12/22 11:59:30;;;;;;;16.27;3.63;;;23.20;99.90;;;;;;5055719;28;20201;-75
2021/12/22 12:02:20;;;;;;;17.33;3.72;;;23.20;99.90;;;;;;5055407;28;20225;-75
2021/12/22 12:04:53;;;;;;;14.15;3.63;;;23.20;99.90;;;;;;5049627;28;20194;-75
2021/12/22 12:07:49;;;;;;;15.65;3.65;;;23.20;99.90;;;;;;5055755;28;20224;-75
2021/12/22 12:10:43;;;;;;;12.00;3.70;;;23.20;99.90;;;;;;5053866;28;20290;-75
2021/12/22 12:13:21;;;;;;;12.80;3.42;;;23.20;99.90;;;;;;5053967;28;20216;-76
2021/12/22 12:22:34;;;;;;;16.35;3.60;;;23.20;99.90;;;;;;5053039;28;20725;-76
2021/12/22 12:25:10;;;;;;;14.85;3.92;;;23.20;99.90;;;;;;5061501;28;20674;-76
2021/12/22 12:27:50;;;;;;;16.10;3.60;;;23.20;99.90;;;;;;5055183;28;20197;-75
2021/12/22 12:30:46;;;;;;;11.00;3.35;;;23.20;99.90;;;;;;5057207;28;20212;-75
2021/12/22 12:33:28;;;;;;;10.07;3.50;;;23.10;99.90;;;;;;5056515;28;20209;-76
2021/12/22 12:36:14;;;;;;;14.63;3.83;;;23.10;99.90;;;;;;5058922;28;20193;-75
2021/12/22 12:38:50;;;;;;;12.68;3.47;;;23.10;99.90;;;;;;5057777;28;20201;-75
2021/12/22 12:41:36;;;;;;;18.95;3.50;;;23.00;99.90;;;;;;5063053;28;20269;-75
2021/12/22 12:44:15;;;;;;;13.65;3.55;;;23.00;99.90;;;;;;5061805;28;20209;-75
2021/12/22 12:46:50;;;;;;;12.45;3.38;;;22.90;99.90;;;;;;5058857;28;20224;-75
2021/12/22 12:49:44;;;;;;;10.68;3.15;;;23.00;99.90;;;;;;5061606;28;20204;-74
2021/12/22 12:52:26;;;;;;;9.88;3.40;;;22.90;99.90;;;;;;5054585;28;20302;-75
2021/12/22 12:55:17;;;;;;;12.45;3.55;;;22.90;99.90;;;;;;5053359;28;20197;-75
2021/12/22 12:57:48;;;;;;;10.32;3.17;;;22.90;99.90;;;;;;5053941;28;20664;-75
2021/12/22 13:00:26;;;;;;;11.05;3.42;;;22.90;99.90;;;;;;5061097;28;20218;-75
2021/12/22 13:03:06;;;;;;;9.13;3.05;;;22.80;99.90;;;;;;5054395;28;20185;-75
2021/12/22 13:05:38;;;;;;;15.02;3.20;;;22.80;99.90;;;;;;5053110;28;20195;-74
2021/12/22 13:08:11;;;;;;;12.23;3.35;;;22.80;99.90;;;;;;5061626;28;20193;-75
2021/12/22 13:10:47;;;;;;;13.90;3.80;;;22.80;99.90;;;;;;5053335;28;20720;-74
2021/12/22 13:13:29;;;;;;;12.40;3.47;;;22.80;99.90;;;;;;5054166;28;20208;-74
2021/12/22 13:15:58;;;;;;;11.40;3.50;;;22.90;99.90;;;;;;5053983;28;20248;-75
2021/12/22 13:18:30;;;;;;;11.38;3.30;;;22.80;99.90;;;;;;5052610;28;20255;-75
2021/12/22 13:21:06;;;;;;;14.27;3.53;;;22.80;99.90;;;;;;5053748;28;20220;-75
2021/12/22 13:23:39;;;;;;;13.98;3.15;;;22.80;99.90;;;;;;5053997;28;20186;-75